sensor_id;sensor_type;location;lat;lon;timestamp;pressure;altitude;pressure_sealevel;temperature;humidity
51099;BME280;37146;48.210;16.234;2022-10-16T00:00:30;99072.06;;;11.12;100.00
51099;BME280;37146;48.210;16.234;2022-10-16T00:02:55;99070.31;;;11.11;100.00
51099;BME280;37146;48.210;16.234;2022-10-16T00:05:20;99072.50;;;11.03;100.00
51099;BME280;37146;48.210;16.234;2022-10-16T00:07:46;99078.59;;;11.06;100.00
51099;BME280;37146;48.210;16.234;2022-10-16T00:10:11;99077.88;;;11.03;100.00
51099;BME280;37146;48.210;16.234;2022-10-16T00:12:36;99082.50;;;10.99;100.00
51099;BME280;37146;48.210;16.234;2022-10-16T00:15:01;99073.69;;;10.97;100.00
51099;BME280;37146;48.210;16.234;2022-10-16T00:17:26;99066.47;;;10.99;100.00
51099;BME280;37146;48.210;16.234;2022-10-16T00:19:52;99075.53;;;10.96;100.00
51099;BME280;37146;48.210;16.234;2022-10-16T00:22:17;99075.38;;;11.00;100.00
51099;BME280;37146;48.210;16.234;2022-10-16T00:24:42;99065.38;;;11.03;100.00
51099;BME280;37146;48.210;16.234;2022-10-16T00:27:07;99067.25;;;11.01;100.00
51099;BME280;37146;48.210;16.234;2022-10-16T00:29:33;99070.56;;;11.06;100.00
51099;BME280;37146;48.210;16.234;2022-10-16T00:31:58;99071.66;;;11.02;100.00
51099;BME280;37146;48.210;16.234;2022-10-16T00:34:23;99084.88;;;11.05;100.00
51099;BME280;37146;48.210;16.234;2022-10-16T00:36:48;99080.97;;;10.95;100.00
51099;BME280;37146;48.210;16.234;2022-10-16T00:39:13;99085.28;;;10.97;100.00
51099;BME280;37146;48.210;16.234;2022-10-16T00:41:39;99088.75;;;11.00;100.00
51099;BME280;37146;48.210;16.234;2022-10-16T00:44:40;99088.56;;;11.03;100.00
51099;BME280;37146;48.210;16.234;2022-10-16T00:46:49;99092.38;;;10.98;100.00
51099;BME280;37146;48.210;16.234;2022-10-16T00:49:15;99094.09;;;11.00;100.00
51099;BME280;37146;48.210;16.234;2022-10-16T00:51:43;99094.09;;;11.00;100.00
51099;BME280;37146;48.210;16.234;2022-10-16T00:54:11;99098.56;;;10.99;100.00
51099;BME280;37146;48.210;16.234;2022-10-16T00:56:38;99097.72;;;10.98;100.00
51099;BME280;37146;48.210;16.234;2022-10-16T00:59:03;99090.63;;;10.97;100.00
51099;BME280;37146;48.210;16.234;2022-10-16T01:01:31;99087.16;;;10.95;100.00
51099;BME280;37146;48.210;16.234;2022-10-16T01:03:56;99087.97;;;10.97;100.00
51099;BME280;37146;48.210;16.234;2022-10-16T01:06:23;99085.38;;;10.96;100.00
51099;BME280;37146;48.210;16.234;2022-10-16T01:08:52;99081.81;;;10.95;100.00
51099;BME280;37146;48.210;16.234;2022-10-16T01:11:22;99087.06;;;10.97;100.00
51099;BME280;37146;48.210;16.234;2022-10-16T01:13:49;99086.22;;;10.96;100.00
51099;BME280;37146;48.210;16.234;2022-10-16T01:16:17;99084.59;;;10.94;100.00
51099;BME280;37146;48.210;16.234;2022-10-16T01:18:52;99087.97;;;10.97;100.00
51099;BME280;37146;48.210;16.234;2022-10-16T01:21:22;99086.13;;;10.98;100.00
51099;BME280;37146;48.210;16.234;2022-10-16T01:26:20;99088.56;;;11.03;100.00
51099;BME280;37146;48.210;16.234;2022-10-16T01:28:56;99083.94;;;11.06;100.00
51099;BME280;37146;48.210;16.234;2022-10-16T01:31:23;99075.97;;;11.05;100.00
51099;BME280;37146;48.210;16.234;2022-10-16T01:34:13;99080.63;;;11.01;100.00
51099;BME280;37146;48.210;16.234;2022-10-16T01:36:41;99085.75;;;11.06;100.00
51099;BME280;37146;48.210;16.234;2022-10-16T01:39:08;99090.31;;;11.04;100.00
51099;BME280;37146;48.210;16.234;2022-10-16T01:41:40;99090.25;;;11.05;100.00
51099;BME280;37146;48.210;16.234;2022-10-16T01:44:11;99082.91;;;11.09;100.00
51099;BME280;37146;48.210;16.234;2022-10-16T01:46:41;99092.03;;;11.05;100.00
51099;BME280;37146;48.210;16.234;2022-10-16T01:49:07;99073.31;;;11.05;100.00
51099;BME280;37146;48.210;16.234;2022-10-16T01:51:34;99082.91;;;11.09;100.00
51099;BME280;37146;48.210;16.234;2022-10-16T01:54:00;99083.06;;;11.06;100.00
51099;BME280;37146;48.210;16.234;2022-10-16T01:56:26;99082.75;;;11.12;100.00
51099;BME280;37146;48.210;16.234;2022-10-16T01:58:56;99087.94;;;11.15;100.00
51099;BME280;37146;48.210;16.234;2022-10-16T02:01:24;99092.59;;;11.11;100.00
51099;BME280;37146;48.210;16.234;2022-10-16T02:03:52;99090.94;;;11.09;100.00
51099;BME280;37146;48.210;16.234;2022-10-16T02:06:18;99090.25;;;11.05;100.00
51099;BME280;37146;48.210;16.234;2022-10-16T02:08:44;99084.94;;;11.04;100.00
51099;BME280;37146;48.210;16.234;2022-10-16T02:11:10;99087.16;;;11.13;100.00
51099;BME280;37146;48.210;16.234;2022-10-16T02:16:01;99103.22;;;11.13;100.00
51099;BME280;37146;48.210;16.234;2022-10-16T02:18:26;99098.63;;;11.15;100.00
51099;BME280;37146;48.210;16.234;2022-10-16T02:23:42;99097.09;;;11.11;100.00
51099;BME280;37146;48.210;16.234;2022-10-16T02:26:11;99105.91;;;11.13;100.00
51099;BME280;37146;48.210;16.234;2022-10-16T02:28:40;99111.25;;;11.13;100.00
51099;BME280;37146;48.210;16.234;2022-10-16T02:31:08;99104.94;;;11.14;100.00
51099;BME280;37146;48.210;16.234;2022-10-16T02:33:35;99102.59;;;11.08;100.00
51099;BME280;37146;48.210;16.234;2022-10-16T02:36:02;99104.56;;;11.04;100.00
51099;BME280;37146;48.210;16.234;2022-10-16T02:38:27;99105.66;;;11.00;100.00
51099;BME280;37146;48.210;16.234;2022-10-16T02:40:53;99104.25;;;10.93;100.00
51099;BME280;37146;48.210;16.234;2022-10-16T02:43:19;99115.81;;;10.93;100.00
51099;BME280;37146;48.210;16.234;2022-10-16T02:45:45;99105.09;;;10.93;100.00
51099;BME280;37146;48.210;16.234;2022-10-16T02:48:10;99111.16;;;10.97;100.00
51099;BME280;37146;48.210;16.234;2022-10-16T02:50:35;99115.19;;;10.88;100.00
51099;BME280;37146;48.210;16.234;2022-10-16T02:53:00;99107.03;;;10.91;100.00
51099;BME280;37146;48.210;16.234;2022-10-16T02:55:26;99108.81;;;10.91;100.00
51099;BME280;37146;48.210;16.234;2022-10-16T02:57:52;99096.47;;;10.88;100.00
51099;BME280;37146;48.210;16.234;2022-10-16T03:00:18;99099.44;;;10.82;100.00
51099;BME280;37146;48.210;16.234;2022-10-16T03:02:43;99098.69;;;10.80;100.00
51099;BME280;37146;48.210;16.234;2022-10-16T03:05:08;99101.34;;;10.80;100.00
51099;BME280;37146;48.210;16.234;2022-10-16T03:07:34;99093.47;;;10.77;100.00
51099;BME280;37146;48.210;16.234;2022-10-16T03:09:59;99101.81;;;10.71;100.00
51099;BME280;37146;48.210;16.234;2022-10-16T03:12:28;99101.97;;;10.67;100.00
51099;BME280;37146;48.210;16.234;2022-10-16T03:14:53;99110.31;;;10.79;100.00
51099;BME280;37146;48.210;16.234;2022-10-16T03:17:19;99109.91;;;10.69;100.00
51099;BME280;37146;48.210;16.234;2022-10-16T03:19:44;99111.75;;;10.69;100.00
51099;BME280;37146;48.210;16.234;2022-10-16T03:22:09;99119.81;;;10.67;100.00
51099;BME280;37146;48.210;16.234;2022-10-16T03:24:35;99126.19;;;10.64;100.00
51099;BME280;37146;48.210;16.234;2022-10-16T03:27:00;99127.78;;;10.69;100.00
51099;BME280;37146;48.210;16.234;2022-10-16T03:29:25;99143.97;;;10.65;100.00
51099;BME280;37146;48.210;16.234;2022-10-16T03:31:51;99135.88;;;10.67;100.00
51099;BME280;37146;48.210;16.234;2022-10-16T03:34:16;99132.34;;;10.66;100.00
51099;BME280;37146;48.210;16.234;2022-10-16T03:36:41;99138.63;;;10.65;100.00
51099;BME280;37146;48.210;16.234;2022-10-16T03:39:06;99135.97;;;10.65;100.00
51099;BME280;37146;48.210;16.234;2022-10-16T03:41:31;99137.75;;;10.65;100.00
51099;BME280;37146;48.210;16.234;2022-10-16T03:43:57;99143.28;;;10.62;100.00
51099;BME280;37146;48.210;16.234;2022-10-16T03:46:22;99142.41;;;10.61;100.00
51099;BME280;37146;48.210;16.234;2022-10-16T03:48:47;99152.88;;;10.66;100.00
51099;BME280;37146;48.210;16.234;2022-10-16T03:51:12;99153.66;;;10.68;100.00
51099;BME280;37146;48.210;16.234;2022-10-16T03:53:38;99159.88;;;10.69;100.00
51099;BME280;37146;48.210;16.234;2022-10-16T03:56:03;99156.47;;;10.65;100.00
51099;BME280;37146;48.210;16.234;2022-10-16T03:58:28;99152.25;;;10.61;100.00
51099;BME280;37146;48.210;16.234;2022-10-16T04:00:53;99154.25;;;10.56;100.00
51099;BME280;37146;48.210;16.234;2022-10-16T04:03:19;99158.06;;;10.51;100.00
51099;BME280;37146;48.210;16.234;2022-10-16T04:05:44;99157.03;;;10.54;100.00
51099;BME280;37146;48.210;16.234;2022-10-16T04:08:09;99153.69;;;10.49;100.00
51099;BME280;37146;48.210;16.234;2022-10-16T04:10:35;99165.41;;;10.46;100.00
51099;BME280;37146;48.210;16.234;2022-10-16T04:13:00;99164.72;;;10.43;100.00
51099;BME280;37146;48.210;16.234;2022-10-16T04:15:25;99166.91;;;10.33;100.00
51099;BME280;37146;48.210;16.234;2022-10-16T04:17:51;99168.41;;;10.40;100.00
51099;BME280;37146;48.210;16.234;2022-10-16T04:20:16;99164.03;;;10.38;100.00
51099;BME280;37146;48.210;16.234;2022-10-16T04:22:42;99169.41;;;10.38;100.00
51099;BME280;37146;48.210;16.234;2022-10-16T04:25:07;99165.84;;;10.37;100.00
51099;BME280;37146;48.210;16.234;2022-10-16T04:27:33;99164.94;;;10.36;100.00
51099;BME280;37146;48.210;16.234;2022-10-16T04:29:58;99163.38;;;10.32;100.00
51099;BME280;37146;48.210;16.234;2022-10-16T04:32:23;99158.19;;;10.29;100.00
51099;BME280;37146;48.210;16.234;2022-10-16T04:34:49;99168.72;;;10.32;100.00
51099;BME280;37146;48.210;16.234;2022-10-16T04:37:14;99160.63;;;10.34;100.00
51099;BME280;37146;48.210;16.234;2022-10-16T04:39:39;99164.19;;;10.34;100.00
51099;BME280;37146;48.210;16.234;2022-10-16T04:42:04;99156.31;;;10.31;100.00
51099;BME280;37146;48.210;16.234;2022-10-16T04:44:30;99155.50;;;10.29;100.00
51099;BME280;37146;48.210;16.234;2022-10-16T04:46:55;99162.91;;;10.24;100.00
51099;BME280;37146;48.210;16.234;2022-10-16T04:49:20;99156.44;;;10.28;100.00
51099;BME280;37146;48.210;16.234;2022-10-16T04:51:45;99168.31;;;10.23;100.00
51099;BME280;37146;48.210;16.234;2022-10-16T04:54:10;99179.66;;;10.28;100.00
51099;BME280;37146;48.210;16.234;2022-10-16T04:56:36;99177.91;;;10.27;100.00
51099;BME280;37146;48.210;16.234;2022-10-16T04:59:08;99185.22;;;10.23;100.00
51099;BME280;37146;48.210;16.234;2022-10-16T05:01:33;99188.13;;;10.18;100.00
51099;BME280;37146;48.210;16.234;2022-10-16T05:03:58;99183.84;;;10.33;100.00
51099;BME280;37146;48.210;16.234;2022-10-16T05:06:23;99186.09;;;10.43;100.00
51099;BME280;37146;48.210;16.234;2022-10-16T05:08:49;99177.13;;;10.44;100.00
51099;BME280;37146;48.210;16.234;2022-10-16T05:11:14;99188.38;;;10.31;100.00
51099;BME280;37146;48.210;16.234;2022-10-16T05:13:39;99186.72;;;10.29;100.00
51099;BME280;37146;48.210;16.234;2022-10-16T05:16:04;99193.72;;;10.31;100.00
51099;BME280;37146;48.210;16.234;2022-10-16T05:18:30;99197.06;;;10.17;100.00
51099;BME280;37146;48.210;16.234;2022-10-16T05:20:55;99206.16;;;10.32;100.00
51099;BME280;37146;48.210;16.234;2022-10-16T05:23:20;99206.16;;;10.32;100.00
51099;BME280;37146;48.210;16.234;2022-10-16T05:25:51;99210.72;;;10.30;100.00
51099;BME280;37146;48.210;16.234;2022-10-16T05:28:17;99211.66;;;10.29;100.00
51099;BME280;37146;48.210;16.234;2022-10-16T05:30:42;99204.88;;;10.22;100.00
51099;BME280;37146;48.210;16.234;2022-10-16T05:33:07;99206.81;;;10.18;100.00
51099;BME280;37146;48.210;16.234;2022-10-16T05:35:32;99198.84;;;10.17;100.00
51099;BME280;37146;48.210;16.234;2022-10-16T05:37:58;99211.00;;;10.05;100.00
51099;BME280;37146;48.210;16.234;2022-10-16T05:40:24;99212.06;;;10.01;100.00
51099;BME280;37146;48.210;16.234;2022-10-16T05:42:49;99212.19;;;9.98;100.00
51099;BME280;37146;48.210;16.234;2022-10-16T05:45:14;99219.38;;;9.97;100.00
51099;BME280;37146;48.210;16.234;2022-10-16T05:47:39;99215.03;;;9.95;100.00
51099;BME280;37146;48.210;16.234;2022-10-16T05:50:05;99224.19;;;9.89;100.00
51099;BME280;37146;48.210;16.234;2022-10-16T05:52:30;99227.69;;;9.91;100.00
51099;BME280;37146;48.210;16.234;2022-10-16T05:54:55;99230.94;;;9.77;100.00
51099;BME280;37146;48.210;16.234;2022-10-16T05:57:20;99238.38;;;9.91;100.00
51099;BME280;37146;48.210;16.234;2022-10-16T05:59:46;99249.97;;;9.90;100.00
51099;BME280;37146;48.210;16.234;2022-10-16T06:02:16;99254.72;;;9.83;100.00
51099;BME280;37146;48.210;16.234;2022-10-16T06:04:41;99254.66;;;9.85;100.00
51099;BME280;37146;48.210;16.234;2022-10-16T06:07:06;99253.06;;;9.81;100.00
51099;BME280;37146;48.210;16.234;2022-10-16T06:09:31;99259.06;;;9.86;100.00
51099;BME280;37146;48.210;16.234;2022-10-16T06:11:57;99262.25;;;9.94;100.00
51099;BME280;37146;48.210;16.234;2022-10-16T06:14:22;99266.66;;;9.95;100.00
51099;BME280;37146;48.210;16.234;2022-10-16T06:16:47;99274.25;;;10.04;100.00
51099;BME280;37146;48.210;16.234;2022-10-16T06:19:12;99272.91;;;10.15;100.00
51099;BME280;37146;48.210;16.234;2022-10-16T06:21:38;99279.94;;;10.17;100.00
51099;BME280;37146;48.210;16.234;2022-10-16T06:24:03;99270.75;;;10.23;100.00
51099;BME280;37146;48.210;16.234;2022-10-16T06:26:29;99270.59;;;10.26;100.00
51099;BME280;37146;48.210;16.234;2022-10-16T06:28:55;99274.25;;;10.25;100.00
51099;BME280;37146;48.210;16.234;2022-10-16T06:31:21;99279.38;;;10.30;100.00
51099;BME280;37146;48.210;16.234;2022-10-16T06:33:49;99276.09;;;10.23;100.00
51099;BME280;37146;48.210;16.234;2022-10-16T06:36:15;99287.16;;;10.34;100.00
51099;BME280;37146;48.210;16.234;2022-10-16T06:38:41;99282.91;;;10.30;100.00
51099;BME280;37146;48.210;16.234;2022-10-16T06:41:07;99280.09;;;10.33;100.00
51099;BME280;37146;48.210;16.234;2022-10-16T06:43:33;99298.13;;;10.28;100.00
51099;BME280;37146;48.210;16.234;2022-10-16T06:46:00;99297.53;;;10.21;100.00
51099;BME280;37146;48.210;16.234;2022-10-16T06:48:26;99296.69;;;10.21;100.00
51099;BME280;37146;48.210;16.234;2022-10-16T06:53:46;99318.88;;;10.23;100.00
51099;BME280;37146;48.210;16.234;2022-10-16T06:56:18;99335.44;;;10.31;100.00
51099;BME280;37146;48.210;16.234;2022-10-16T06:58:44;99335.13;;;10.39;100.00
51099;BME280;37146;48.210;16.234;2022-10-16T07:01:10;99322.75;;;10.56;100.00
51099;BME280;37146;48.210;16.234;2022-10-16T07:03:36;99322.97;;;10.51;100.00
51099;BME280;37146;48.210;16.234;2022-10-16T07:06:02;99326.50;;;10.71;100.00
51099;BME280;37146;48.210;16.234;2022-10-16T07:08:28;99335.41;;;10.52;100.00
51099;BME280;37146;48.210;16.234;2022-10-16T07:10:59;99320.25;;;10.52;100.00
51099;BME280;37146;48.210;16.234;2022-10-16T07:13:24;99336.84;;;10.59;100.00
51099;BME280;37146;48.210;16.234;2022-10-16T07:15:50;99337.44;;;10.66;100.00
51099;BME280;37146;48.210;16.234;2022-10-16T07:18:15;99343.09;;;10.60;100.00
51099;BME280;37146;48.210;16.234;2022-10-16T07:20:40;99338.44;;;10.63;100.00
51099;BME280;37146;48.210;16.234;2022-10-16T07:23:05;99336.44;;;10.69;100.00
51099;BME280;37146;48.210;16.234;2022-10-16T07:25:30;99340.31;;;10.61;100.00
51099;BME280;37146;48.210;16.234;2022-10-16T07:27:56;99348.06;;;10.48;100.00
51099;BME280;37146;48.210;16.234;2022-10-16T07:30:21;99350.59;;;10.51;100.00
51099;BME280;37146;48.210;16.234;2022-10-16T07:32:47;99344.22;;;10.54;100.00
51099;BME280;37146;48.210;16.234;2022-10-16T07:35:12;99353.75;;;10.41;100.00
51099;BME280;37146;48.210;16.234;2022-10-16T07:37:37;99344.00;;;10.40;100.00
51099;BME280;37146;48.210;16.234;2022-10-16T07:40:02;99349.22;;;10.22;100.00
51099;BME280;37146;48.210;16.234;2022-10-16T07:42:28;99350.63;;;10.10;100.00
51099;BME280;37146;48.210;16.234;2022-10-16T07:44:53;99354.09;;;10.12;100.00
51099;BME280;37146;48.210;16.234;2022-10-16T07:47:19;99357.03;;;10.27;100.00
51099;BME280;37146;48.210;16.234;2022-10-16T07:49:44;99367.78;;;10.46;100.00
51099;BME280;37146;48.210;16.234;2022-10-16T07:52:09;99368.78;;;10.43;100.00
51099;BME280;37146;48.210;16.234;2022-10-16T07:54:34;99369.16;;;10.34;100.00
51099;BME280;37146;48.210;16.234;2022-10-16T07:56:59;99364.75;;;10.54;100.00
51099;BME280;37146;48.210;16.234;2022-10-16T07:59:24;99367.25;;;10.58;100.00
51099;BME280;37146;48.210;16.234;2022-10-16T08:01:50;99369.38;;;10.50;100.00
51099;BME280;37146;48.210;16.234;2022-10-16T08:04:15;99373.66;;;10.54;100.00
51099;BME280;37146;48.210;16.234;2022-10-16T08:06:40;99372.25;;;10.45;100.00
51099;BME280;37146;48.210;16.234;2022-10-16T08:09:06;99370.97;;;10.54;100.00
51099;BME280;37146;48.210;16.234;2022-10-16T08:11:31;99379.75;;;10.77;100.00
51099;BME280;37146;48.210;16.234;2022-10-16T08:13:57;99386.97;;;10.75;100.00
51099;BME280;37146;48.210;16.234;2022-10-16T08:16:22;99383.34;;;10.57;100.00
51099;BME280;37146;48.210;16.234;2022-10-16T08:18:47;99391.75;;;10.68;100.00
51099;BME280;37146;48.210;16.234;2022-10-16T08:21:14;99396.22;;;10.67;100.00
51099;BME280;37146;48.210;16.234;2022-10-16T08:23:39;99398.09;;;10.65;100.00
51099;BME280;37146;48.210;16.234;2022-10-16T08:26:05;99405.41;;;10.62;100.00
51099;BME280;37146;48.210;16.234;2022-10-16T08:28:31;99398.81;;;10.69;100.00
51099;BME280;37146;48.210;16.234;2022-10-16T08:30:56;99395.00;;;10.75;100.00
51099;BME280;37146;48.210;16.234;2022-10-16T08:33:22;99399.78;;;10.87;100.00
51099;BME280;37146;48.210;16.234;2022-10-16T08:35:53;99407.69;;;10.90;100.00
51099;BME280;37146;48.210;16.234;2022-10-16T08:38:19;99399.03;;;11.03;100.00
51099;BME280;37146;48.210;16.234;2022-10-16T08:40:44;99410.28;;;11.11;100.00
51099;BME280;37146;48.210;16.234;2022-10-16T08:48:29;99391.97;;;11.02;100.00
51099;BME280;37146;48.210;16.234;2022-10-16T08:50:55;99394.97;;;11.32;100.00
51099;BME280;37146;48.210;16.234;2022-10-16T08:53:26;99391.81;;;11.05;100.00
51099;BME280;37146;48.210;16.234;2022-10-16T08:55:53;99398.31;;;11.18;100.00
51099;BME280;37146;48.210;16.234;2022-10-16T08:58:19;99405.53;;;11.35;100.00
51099;BME280;37146;48.210;16.234;2022-10-16T09:01:03;99392.53;;;11.27;100.00
51099;BME280;37146;48.210;16.234;2022-10-16T09:06:17;99404.25;;;11.25;100.00
51099;BME280;37146;48.210;16.234;2022-10-16T09:16:24;99413.41;;;11.57;100.00
51099;BME280;37146;48.210;16.234;2022-10-16T09:21:27;99417.91;;;11.38;100.00
51099;BME280;37146;48.210;16.234;2022-10-16T09:23:57;99415.75;;;11.46;100.00
51099;BME280;37146;48.210;16.234;2022-10-16T09:26:23;99414.63;;;11.50;100.00
51099;BME280;37146;48.210;16.234;2022-10-16T09:28:48;99414.69;;;11.68;100.00
51099;BME280;37146;48.210;16.234;2022-10-16T09:31:17;99426.13;;;11.71;100.00
51099;BME280;37146;48.210;16.234;2022-10-16T09:33:43;99432.66;;;11.83;100.00
51099;BME280;37146;48.210;16.234;2022-10-16T09:36:10;99441.50;;;11.85;100.00
51099;BME280;37146;48.210;16.234;2022-10-16T09:38:36;99447.56;;;11.89;100.00
51099;BME280;37146;48.210;16.234;2022-10-16T09:41:03;99448.84;;;11.63;100.00
51099;BME280;37146;48.210;16.234;2022-10-16T09:43:40;99447.59;;;11.70;100.00
51099;BME280;37146;48.210;16.234;2022-10-16T09:46:08;99450.47;;;11.67;100.00
51099;BME280;37146;48.210;16.234;2022-10-16T09:48:38;99445.25;;;11.64;100.00
51099;BME280;37146;48.210;16.234;2022-10-16T09:51:05;99453.72;;;11.73;100.00
51099;BME280;37146;48.210;16.234;2022-10-16T09:53:38;99446.31;;;11.59;100.00
51099;BME280;37146;48.210;16.234;2022-10-16T09:56:05;99439.66;;;11.68;100.00
51099;BME280;37146;48.210;16.234;2022-10-16T09:58:31;99449.13;;;11.75;100.00
51099;BME280;37146;48.210;16.234;2022-10-16T10:00:58;99446.28;;;11.79;100.00
51099;BME280;37146;48.210;16.234;2022-10-16T10:03:33;99449.78;;;11.81;100.00
51099;BME280;37146;48.210;16.234;2022-10-16T10:06:03;99451.88;;;11.74;100.00
51099;BME280;37146;48.210;16.234;2022-10-16T10:08:30;99450.38;;;11.68;100.00
51099;BME280;37146;48.210;16.234;2022-10-16T10:10:55;99451.75;;;11.77;100.00
51099;BME280;37146;48.210;16.234;2022-10-16T10:13:24;99457.91;;;11.79;100.00
51099;BME280;37146;48.210;16.234;2022-10-16T10:15:49;99450.47;;;11.67;100.00
51099;BME280;37146;48.210;16.234;2022-10-16T10:18:20;99453.28;;;11.64;100.00
51099;BME280;37146;48.210;16.234;2022-10-16T10:20:56;99459.13;;;11.72;100.00
51099;BME280;37146;48.210;16.234;2022-10-16T10:23:23;99459.81;;;11.58;100.00
51099;BME280;37146;48.210;16.234;2022-10-16T10:38:38;99465.25;;;11.93;100.00
51099;BME280;37146;48.210;16.234;2022-10-16T10:46:00;99456.72;;;11.85;100.00
51099;BME280;37146;48.210;16.234;2022-10-16T10:51:08;99452.88;;;11.90;100.00
51099;BME280;37146;48.210;16.234;2022-10-16T11:01:24;99447.69;;;12.05;100.00
51099;BME280;37146;48.210;16.234;2022-10-16T11:11:38;99442.34;;;12.23;100.00
51099;BME280;37146;48.210;16.234;2022-10-16T11:14:15;99438.59;;;11.90;100.00
51099;BME280;37146;48.210;16.234;2022-10-16T11:16:43;99441.41;;;11.87;100.00
51099;BME280;37146;48.210;16.234;2022-10-16T11:19:14;99444.66;;;11.94;100.00
51099;BME280;37146;48.210;16.234;2022-10-16T11:21:47;99438.59;;;11.90;100.00
51099;BME280;37146;48.210;16.234;2022-10-16T11:24:19;99440.59;;;12.04;100.00
51099;BME280;37146;48.210;16.234;2022-10-16T11:26:45;99442.09;;;12.27;100.00
51099;BME280;37146;48.210;16.234;2022-10-16T11:29:25;99440.97;;;12.31;100.00
51099;BME280;37146;48.210;16.234;2022-10-16T11:31:55;99451.47;;;12.36;100.00
51099;BME280;37146;48.210;16.234;2022-10-16T11:36:52;99442.00;;;12.46;100.00
51099;BME280;37146;48.210;16.234;2022-10-16T11:39:28;99450.44;;;12.56;100.00
51099;BME280;37146;48.210;16.234;2022-10-16T11:42:04;99445.19;;;12.71;100.00
51099;BME280;37146;48.210;16.234;2022-10-16T11:47:24;99445.56;;;12.80;100.00
51099;BME280;37146;48.210;16.234;2022-10-16T11:49:52;99441.03;;;12.65;100.00
51099;BME280;37146;48.210;16.234;2022-10-16T11:54:56;99444.56;;;12.65;100.00
51099;BME280;37146;48.210;16.234;2022-10-16T11:57:24;99442.19;;;12.77;100.00
51099;BME280;37146;48.210;16.234;2022-10-16T12:07:36;99455.59;;;13.26;100.00
51099;BME280;37146;48.210;16.234;2022-10-16T12:10:38;99442.09;;;13.60;100.00
51099;BME280;37146;48.210;16.234;2022-10-16T12:13:03;99439.81;;;13.84;100.00
51099;BME280;37146;48.210;16.234;2022-10-16T12:15:29;99434.28;;;13.71;100.00
51099;BME280;37146;48.210;16.234;2022-10-16T12:17:55;99441.03;;;13.79;100.00
51099;BME280;37146;48.210;16.234;2022-10-16T12:20:22;99435.00;;;14.05;100.00
51099;BME280;37146;48.210;16.234;2022-10-16T12:22:55;99431.06;;;14.42;100.00
51099;BME280;37146;48.210;16.234;2022-10-16T12:27:53;99427.66;;;14.68;100.00
51099;BME280;37146;48.210;16.234;2022-10-16T12:30:20;99436.97;;;15.06;100.00
51099;BME280;37146;48.210;16.234;2022-10-16T12:32:52;99433.81;;;14.85;100.00
51099;BME280;37146;48.210;16.234;2022-10-16T12:35:29;99429.56;;;15.10;100.00
51099;BME280;37146;48.210;16.234;2022-10-16T12:38:04;99420.78;;;15.63;100.00
51099;BME280;37146;48.210;16.234;2022-10-16T12:40:30;99419.28;;;15.71;100.00
51099;BME280;37146;48.210;16.234;2022-10-16T12:42:57;99418.25;;;15.46;100.00
51099;BME280;37146;48.210;16.234;2022-10-16T12:45:23;99415.28;;;15.64;100.00
51099;BME280;37146;48.210;16.234;2022-10-16T12:47:50;99427.34;;;15.58;100.00
51099;BME280;37146;48.210;16.234;2022-10-16T12:50:33;99422.81;;;15.59;100.00
51099;BME280;37146;48.210;16.234;2022-10-16T12:52:59;99427.31;;;16.00;100.00
51099;BME280;37146;48.210;16.234;2022-10-16T12:55:25;99429.13;;;16.00;100.00
51099;BME280;37146;48.210;16.234;2022-10-16T13:28:40;99418.09;;;16.69;100.00
51099;BME280;37146;48.210;16.234;2022-10-16T13:31:09;99420.69;;;16.83;100.00
51099;BME280;37146;48.210;16.234;2022-10-16T13:33:39;99421.91;;;16.53;100.00
51099;BME280;37146;48.210;16.234;2022-10-16T13:36:06;99433.88;;;16.49;100.00
51099;BME280;37146;48.210;16.234;2022-10-16T13:38:32;99430.84;;;16.41;100.00
51099;BME280;37146;48.210;16.234;2022-10-16T13:40:59;99438.81;;;16.56;100.00
51099;BME280;37146;48.210;16.234;2022-10-16T13:43:29;99429.78;;;16.69;100.00
51099;BME280;37146;48.210;16.234;2022-10-16T13:46:01;99428.25;;;16.78;100.00
51099;BME280;37146;48.210;16.234;2022-10-16T13:48:27;99427.59;;;16.75;100.00
51099;BME280;37146;48.210;16.234;2022-10-16T13:50:59;99428.91;;;16.69;100.00
51099;BME280;37146;48.210;16.234;2022-10-16T13:53:24;99432.78;;;16.91;100.00
51099;BME280;37146;48.210;16.234;2022-10-16T13:55:50;99437.66;;;16.98;100.00
51099;BME280;37146;48.210;16.234;2022-10-16T13:58:15;99426.94;;;16.84;100.00
51099;BME280;37146;48.210;16.234;2022-10-16T14:00:42;99432.47;;;16.95;100.00
51099;BME280;37146;48.210;16.234;2022-10-16T14:03:17;99427.81;;;17.10;100.00
51099;BME280;37146;48.210;16.234;2022-10-16T14:05:46;99432.25;;;16.98;100.00
51099;BME280;37146;48.210;16.234;2022-10-16T14:08:13;99437.75;;;17.10;100.00
51099;BME280;37146;48.210;16.234;2022-10-16T14:10:38;99434.09;;;16.98;100.00
51099;BME280;37146;48.210;16.234;2022-10-16T14:13:05;99437.03;;;16.95;100.00
51099;BME280;37146;48.210;16.234;2022-10-16T14:15:31;99434.50;;;16.92;100.00
51099;BME280;37146;48.210;16.234;2022-10-16T14:17:57;99438.84;;;17.07;100.00
51099;BME280;37146;48.210;16.234;2022-10-16T14:20:24;99429.44;;;17.00;100.00
51099;BME280;37146;48.210;16.234;2022-10-16T14:23:02;99430.97;;;17.04;100.00
51099;BME280;37146;48.210;16.234;2022-10-16T14:25:28;99433.88;;;17.01;100.00
51099;BME280;37146;48.210;16.234;2022-10-16T14:28:01;99433.13;;;16.99;100.00
51099;BME280;37146;48.210;16.234;2022-10-16T14:30:27;99429.88;;;17.07;100.00
51099;BME280;37146;48.210;16.234;2022-10-16T14:33:03;99424.38;;;17.08;100.00